METAR AND TAF INFORMATION
METAR FOR LEHC
ADDS - METARS form results

(1221 UTC 03 October 2022)
Data provider http://aviationweather.gov/metar/data/
 
METAR text: LEHC 031200Z 23003KT CAVOK 26/10 Q1022
Conditions at: LEHC (HUESCA-PIRINEOS , ES) observed 1200 UTC 03 October 2022
Temperature: 26.0°C (79°F)
Dewpoint: 10.0°C (50°F) [RH = 37%]
Pressure (altimeter): 30.18 inches Hg (1022.0 mb)
Winds: from the SW (230 degrees) at 3 MPH (3 knots; 1.5 m/s)
Visibility: 6 or more miles (10+ km)
Ceiling: ceiling and visibility are OK
Clouds: unknown
Weather: no significant weather observed at this time

METAR text: LEHC 031130Z 18005KT CAVOK 25/11 Q1023
Conditions at: LEHC (HUESCA-PIRINEOS , ES) observed 1130 UTC 03 October 2022
Temperature: 25.0°C (77°F)
Dewpoint: 11.0°C (52°F) [RH = 41%]
Pressure (altimeter): 30.21 inches Hg (1023.0 mb)
Winds: from the S (180 degrees) at 6 MPH (5 knots; 2.6 m/s)
Visibility: 6 or more miles (10+ km)
Ceiling: ceiling and visibility are OK
Clouds: unknown
Weather: no significant weather observed at this time

Forecast for: LEHC (HUESCA-PIRINEOS , ES)
Text: TAF LEHC 030800Z 0309/0409 VRB04KT CAVOK TX29/0314Z TN14/0405Z
Forecast period: 0900 to 2000 UTC 03 October 2022
Forecast type: FROM: standard forecast or significant change
Winds: variable direction winds at 5 MPH (4 knots; 2.1 m/s)
Visibility: 6 or more miles (10+ km)
Ceiling: unknown
Clouds: missing
Weather: no significant weather forecast for this period
Text: BECMG 0320/0322 09010KT
Forecast period: 2000 UTC 03 October 2022 to 0500 UTC 04 October 2022
Forecast type: BECOMING: Conditions expected to become as follows by 2200 UTC 03 October 2022
Winds: from the E (90 degrees) at 12 MPH (10 knots; 5.1 m/s)
Visibility: 6 or more miles (10+ km)
Ceiling: unknown
Clouds: missing
Weather: no significant weather forecast for this period
Text: PROB40
Forecast period: 0000 to 0800 UTC 04 October 2022
Forecast type: TEMPORARY: The following changes expected for less than half the time period
Visibility: 1.86 miles (2.99 km)
Ceiling: 500 feet AGL
Clouds: broken clouds at 500 feet AGL
Weather: BR  (mist)
Text: TEMPO 0400/0408 3000 BR BKN005
Forecast period: 0000 to 0600 UTC 04 October 2022
Forecast type: TEMPORARY: The following changes expected for less than half the time period
Visibility: 0.37 miles (0.60 km)
Ceiling: indefinite ceiling with vertical visibility of 100 feet AGL
Clouds: obscured sky
Weather: FG  (fog)
Text: PROB30
Forecast period: 0500 to 0900 UTC 04 October 2022
Forecast type: BECOMING: Conditions expected to become as follows by 0700 UTC 04 October 2022
Winds: variable direction winds at 3 MPH (3 knots; 1.5 m/s)
Visibility: 6 or more miles (10+ km)
Ceiling: unknown
Clouds: missing
Weather: no significant weather forecast for this period

 AIRPORT MAP

 RUNWAY INFORMATION

 AIRPORT FREQUENCIES

 AIRPORT NEAR NAVIGATION AIDS





Powered by Virtual Airlines Manager

Maps by Rafael Santos